Time;durP1;ratioP1;P1;durP2;ratioP2;P2;SDS_P1;SDS_P2;PMS_P1;PMS_P2;Temp;Humidity;BMP_temperature;BMP_pressure;BME280_temperature;BME280_humidity;BME280_pressure;Samples;Min_cycle;Max_cycle;Signal;HPM_P1;HPM_P2
2022/11/17 00:00:03;;;;;;;;;;;14.50;62.50;;;;;;5059981;28;19920;-87
2022/11/17 00:02:29;;;;;;;;;;;14.50;62.30;;;;;;5060232;28;20313;-87
2022/11/17 00:04:54;;;;;;;;;;;14.60;62.30;;;;;;5068494;28;19956;-88
2022/11/17 00:07:20;;;;;;;;;;;14.60;62.40;;;;;;5054992;28;19916;-88
2022/11/17 00:09:45;;;;;;;;;;;14.50;62.20;;;;;;5058741;28;19912;-88
2022/11/17 00:14:55;;;;;;;;;;;14.60;62.20;;;;;;5066513;28;19943;-89
2022/11/17 00:17:20;;;;;;;;;;;14.50;62.20;;;;;;5063744;28;19917;-87
2022/11/17 00:22:33;;;;;;;;;;;14.50;62.10;;;;;;5073538;28;19927;-88
2022/11/17 00:24:58;;;;;;;;;;;14.50;62.10;;;;;;5073003;28;19970;-87
2022/11/17 00:27:24;;;;;;;;;;;14.50;62.10;;;;;;5065638;28;20450;-87
2022/11/17 00:29:49;;;;;;;;;;;14.50;62.00;;;;;;5066672;28;20275;-87
2022/11/17 00:35:00;;;;;;;;;;;14.40;62.20;;;;;;5071954;28;20319;-87
2022/11/17 00:37:26;;;;;;;;;;;14.40;62.30;;;;;;5073739;28;19920;-88
2022/11/17 00:39:51;;;;;;;;;;;14.40;62.10;;;;;;5073544;28;19920;-88
2022/11/17 00:42:17;;;;;;;;;;;14.40;62.10;;;;;;5072271;28;19917;-88
2022/11/17 00:44:42;;;;;;;;;;;14.30;62.10;;;;;;5072197;28;19920;-88
2022/11/17 00:47:08;;;;;;;;;;;14.30;62.10;;;;;;5070502;28;19921;-88
2022/11/17 00:49:36;;;;;;;;;;;14.30;62.00;;;;;;5071939;28;20020;-87
2022/11/17 00:52:01;;;;;;;;;;;14.30;61.90;;;;;;5055691;28;19924;-86
2022/11/17 00:54:27;;;;;;;;;;;14.20;62.10;;;;;;5052685;28;20003;-87
2022/11/17 00:56:53;;;;;;;;;;;14.30;62.10;;;;;;5051077;28;19943;-88
2022/11/17 00:59:18;;;;;;;;;;;14.30;62.00;;;;;;5051488;28;19971;-86
2022/11/17 01:01:44;;;;;;;;;;;14.30;62.00;;;;;;5051327;28;19917;-88
2022/11/17 01:04:11;;;;;;;;;;;14.30;62.10;;;;;;5054700;28;19913;-86
2022/11/17 01:06:38;;;;;;;;;;;14.20;62.10;;;;;;5052288;28;19936;-88
2022/11/17 01:09:04;;;;;;;;;;;14.20;62.10;;;;;;5053655;28;20379;-88
2022/11/17 01:11:30;;;;;;;;;;;14.20;62.10;;;;;;5054820;28;19964;-88
2022/11/17 01:13:56;;;;;;;;;;;14.30;62.10;;;;;;5072602;28;19915;-88
2022/11/17 01:16:22;;;;;;;;;;;14.20;62.00;;;;;;5066384;28;19954;-87
2022/11/17 01:18:49;;;;;;;;;;;14.20;62.20;;;;;;5072919;28;20758;-88
2022/11/17 01:21:18;;;;;;;;;;;14.20;62.10;;;;;;5073741;28;19933;-86
2022/11/17 01:23:44;;;;;;;;;;;14.20;62.10;;;;;;5073671;28;19913;-88
2022/11/17 01:26:11;;;;;;;;;;;14.20;62.20;;;;;;5072142;28;20011;-87
2022/11/17 01:28:37;;;;;;;;;;;14.20;62.20;;;;;;5067970;28;19913;-88
2022/11/17 01:31:07;;;;;;;;;;;14.30;62.10;;;;;;5051838;28;19919;-87
2022/11/17 01:33:33;;;;;;;;;;;14.30;62.10;;;;;;5057852;28;20537;-88
2022/11/17 01:36:00;;;;;;;;;;;14.30;62.00;;;;;;5072982;28;19923;-88
2022/11/17 01:38:26;;;;;;;;;;;14.30;61.70;;;;;;5070024;28;19931;-87
2022/11/17 01:40:51;;;;;;;;;;;14.20;61.80;;;;;;5071405;28;19912;-86
2022/11/17 01:43:33;;;;;;;;;;;14.20;61.80;;;;;;5071481;28;19920;-87
2022/11/17 01:45:58;;;;;;;;;;;14.20;62.00;;;;;;5060809;28;19920;-87
2022/11/17 01:48:24;;;;;;;;;;;14.20;61.90;;;;;;5058826;28;19917;-87
2022/11/17 01:50:49;;;;;;;;;;;14.20;61.90;;;;;;5055410;28;20292;-87
2022/11/17 01:53:17;;;;;;;;;;;14.20;61.70;;;;;;5058098;28;19970;-85
2022/11/17 01:55:47;;;;;;;;;;;14.20;61.80;;;;;;5053005;28;20475;-87
2022/11/17 01:58:16;;;;;;;;;;;14.20;61.60;;;;;;5065559;28;19929;-88
2022/11/17 02:00:41;;;;;;;;;;;14.10;61.60;;;;;;5065863;28;19919;-87
2022/11/17 02:03:07;;;;;;;;;;;14.20;61.80;;;;;;5059329;28;19917;-88
2022/11/17 02:05:52;;;;;;;;;;;14.20;61.80;;;;;;5069753;28;19918;-88
2022/11/17 02:08:19;;;;;;;;;;;14.30;61.80;;;;;;5069822;28;19916;-88
2022/11/17 02:10:46;;;;;;;;;;;14.30;61.80;;;;;;5059157;28;19955;-88
2022/11/17 02:13:12;;;;;;;;;;;14.20;61.90;;;;;;5068962;28;19935;-87
2022/11/17 02:15:37;;;;;;;;;;;14.30;61.70;;;;;;5065638;28;19916;-85
2022/11/17 02:18:03;;;;;;;;;;;14.30;61.80;;;;;;5061129;28;19928;-87
2022/11/17 02:20:38;;;;;;;;;;;14.30;61.70;;;;;;5070336;28;20609;-88
2022/11/17 02:23:32;;;;;;;;;;;14.30;61.70;;;;;;5071739;28;19921;-88
2022/11/17 02:25:58;;;;;;;;;;;14.20;61.70;;;;;;5053465;28;19913;-87
2022/11/17 02:28:52;;;;;;;;;;;14.20;61.80;;;;;;5059701;28;19921;-88
2022/11/17 02:31:37;;;;;;;;;;;14.20;61.70;;;;;;5065100;28;19934;-88
2022/11/17 02:34:14;;;;;;;;;;;14.30;61.70;;;;;;5069771;28;19994;-85
2022/11/17 02:36:55;;;;;;;;;;;14.30;61.50;;;;;;5070555;28;20367;-88
2022/11/17 02:39:22;;;;;;;;;;;14.30;61.40;;;;;;5071775;28;20387;-86
2022/11/17 02:41:54;;;;;;;;;;;14.30;61.40;;;;;;5069495;28;19958;-87
2022/11/17 02:44:25;;;;;;;;;;;14.20;61.20;;;;;;5067812;28;20291;-88
2022/11/17 02:47:01;;;;;;;;;;;14.20;61.30;;;;;;5054833;28;19920;-87
2022/11/17 02:49:35;;;;;;;;;;;14.20;61.30;;;;;;5051282;28;19909;-87
2022/11/17 02:52:01;;;;;;;;;;;14.10;61.20;;;;;;5050783;28;19917;-88
2022/11/17 02:54:28;;;;;;;;;;;14.10;61.30;;;;;;5062060;28;19935;-88
2022/11/17 02:56:53;;;;;;;;;;;14.10;61.40;;;;;;5050937;28;19932;-88
2022/11/17 02:59:28;;;;;;;;;;;14.00;61.30;;;;;;5062983;28;19921;-86
2022/11/17 03:02:02;;;;;;;;;;;14.00;61.50;;;;;;5069574;28;19946;-87
2022/11/17 03:04:38;;;;;;;;;;;14.00;61.40;;;;;;5062080;28;19913;-87
2022/11/17 03:07:22;;;;;;;;;;;13.90;61.60;;;;;;5074446;28;19917;-86
2022/11/17 03:09:56;;;;;;;;;;;14.00;61.60;;;;;;5052374;28;19909;-88
2022/11/17 03:12:29;;;;;;;;;;;14.00;61.60;;;;;;5050299;28;19921;-86
2022/11/17 03:15:15;;;;;;;;;;;14.00;61.70;;;;;;5065727;28;20387;-86
2022/11/17 03:17:46;;;;;;;;;;;14.00;61.60;;;;;;5072633;28;19931;-87
2022/11/17 03:20:13;;;;;;;;;;;14.00;61.60;;;;;;5071864;28;20013;-86
2022/11/17 03:22:57;;;;;;;;;;;14.00;61.70;;;;;;5059501;28;19984;-88
2022/11/17 03:25:25;;;;;;;;;;;14.10;61.70;;;;;;5053239;28;19912;-87
2022/11/17 03:27:57;;;;;;;;;;;14.00;61.60;;;;;;5070802;28;19925;-87
2022/11/17 03:30:24;;;;;;;;;;;14.00;61.80;;;;;;5055187;28;19919;-86
2022/11/17 03:32:52;;;;;;;;;;;14.10;61.80;;;;;;5053987;28;19921;-86
2022/11/17 03:35:25;;;;;;;;;;;14.10;61.60;;;;;;5073772;28;19983;-87
2022/11/17 03:37:53;;;;;;;;;;;14.10;61.60;;;;;;5074713;28;20504;-88
2022/11/17 03:40:21;;;;;;;;;;;14.10;61.70;;;;;;5074342;28;20378;-86
2022/11/17 03:42:51;;;;;;;;;;;14.00;62.00;;;;;;5074590;28;19923;-87
2022/11/17 03:45:19;;;;;;;;;;;13.90;62.50;;;;;;5063139;28;20371;-88
2022/11/17 03:47:45;;;;;;;;;;;13.80;62.70;;;;;;5052773;28;20368;-87
2022/11/17 03:50:17;;;;;;;;;;;13.80;63.10;;;;;;5053856;28;19909;-89
2022/11/17 03:52:43;;;;;;;;;;;13.70;63.30;;;;;;5053992;28;20310;-88
2022/11/17 03:55:09;;;;;;;;;;;13.60;63.50;;;;;;5053097;28;20551;-88
2022/11/17 03:57:37;;;;;;;;;;;13.60;63.60;;;;;;5063870;28;19917;-88
2022/11/17 04:00:07;;;;;;;;;;;13.50;63.70;;;;;;5054929;28;20017;-87
2022/11/17 04:02:33;;;;;;;;;;;13.50;64.00;;;;;;5052112;28;19942;-88
2022/11/17 04:05:04;;;;;;;;;;;13.50;64.10;;;;;;5067105;28;19912;-88
2022/11/17 04:07:30;;;;;;;;;;;13.50;64.10;;;;;;5063514;28;19920;-87
2022/11/17 04:09:56;;;;;;;;;;;13.40;64.30;;;;;;5059975;28;19913;-88
2022/11/17 04:17:50;;;;;;;;;;;13.40;64.50;;;;;;5058985;28;20263;-85
2022/11/17 04:20:15;;;;;;;;;;;13.40;64.50;;;;;;5073886;28;20283;-87
2022/11/17 04:22:41;;;;;;;;;;;13.30;64.60;;;;;;5067482;28;20396;-86
2022/11/17 04:25:07;;;;;;;;;;;13.30;64.70;;;;;;5051838;28;19909;-87
2022/11/17 04:30:17;;;;;;;;;;;13.50;64.40;;;;;;5059455;28;19923;-87
2022/11/17 04:32:42;;;;;;;;;;;13.30;64.70;;;;;;5053435;28;20233;-87
2022/11/17 04:35:08;;;;;;;;;;;13.30;64.60;;;;;;5073352;28;19913;-88
2022/11/17 04:37:34;;;;;;;;;;;13.30;64.70;;;;;;5075565;28;20395;-88
2022/11/17 04:39:59;;;;;;;;;;;13.30;64.70;;;;;;5074771;28;20274;-88
2022/11/17 04:42:25;;;;;;;;;;;13.40;64.60;;;;;;5071509;28;19947;-89
2022/11/17 04:44:50;;;;;;;;;;;13.40;64.60;;;;;;5065585;28;19959;-87
2022/11/17 04:47:16;;;;;;;;;;;13.40;64.60;;;;;;5052697;28;19966;-87
2022/11/17 04:49:41;;;;;;;;;;;13.40;64.50;;;;;;5053140;28;19909;-87
2022/11/17 04:52:07;;;;;;;;;;;13.40;64.40;;;;;;5051149;28;19917;-88
2022/11/17 04:54:32;;;;;;;;;;;13.40;64.60;;;;;;5051762;28;19943;-87
2022/11/17 04:56:58;;;;;;;;;;;13.30;64.60;;;;;;5063300;28;20333;-86
2022/11/17 04:59:23;;;;;;;;;;;13.30;64.80;;;;;;5072368;28;19931;-88
2022/11/17 05:01:49;;;;;;;;;;;13.30;64.70;;;;;;5073021;28;19916;-89
2022/11/17 05:04:54;;;;;;;;;;;13.30;64.70;;;;;;5072433;28;19953;-88
2022/11/17 05:07:02;;;;;;;;;;;13.30;64.70;;;;;;5072400;28;19917;-88
2022/11/17 05:09:27;;;;;;;;;;;13.30;64.60;;;;;;5072659;28;19909;-88
2022/11/17 05:14:37;;;;;;;;;;;13.30;64.60;;;;;;5070307;28;19999;-86
2022/11/17 05:17:05;;;;;;;;;;;13.30;64.50;;;;;;5062814;28;19958;-86
2022/11/17 05:19:32;;;;;;;;;;;13.30;64.50;;;;;;5055502;28;19921;-86
2022/11/17 05:21:57;;;;;;;;;;;13.20;64.60;;;;;;5051733;28;20379;-87
2022/11/17 05:24:23;;;;;;;;;;;13.10;64.60;;;;;;5060706;28;20481;-86
2022/11/17 05:26:49;;;;;;;;;;;13.10;64.70;;;;;;5055551;28;19957;-89
2022/11/17 05:29:16;;;;;;;;;;;13.10;64.70;;;;;;5053050;28;19917;-87
2022/11/17 05:31:41;;;;;;;;;;;13.10;64.60;;;;;;5054644;28;19916;-89
2022/11/17 05:34:07;;;;;;;;;;;13.00;64.50;;;;;;5063703;28;19920;-87
2022/11/17 05:36:33;;;;;;;;;;;13.00;64.60;;;;;;5065755;28;19917;-86
2022/11/17 05:38:58;;;;;;;;;;;13.00;64.60;;;;;;5055900;28;19928;-87
2022/11/17 05:41:24;;;;;;;;;;;12.90;64.70;;;;;;5051305;28;19927;-88
2022/11/17 05:43:50;;;;;;;;;;;13.00;64.70;;;;;;5061335;28;20398;-89
2022/11/17 05:46:18;;;;;;;;;;;12.90;64.80;;;;;;5052567;28;20507;-87
2022/11/17 05:48:44;;;;;;;;;;;13.00;64.60;;;;;;5050257;28;20532;-86
2022/11/17 05:51:10;;;;;;;;;;;12.80;64.80;;;;;;5055684;28;19913;-87
2022/11/17 05:53:36;;;;;;;;;;;12.90;64.70;;;;;;5057856;28;19916;-86
2022/11/17 05:56:07;;;;;;;;;;;12.80;64.90;;;;;;5050475;28;19919;-87
2022/11/17 05:58:35;;;;;;;;;;;12.70;65.00;;;;;;5053604;28;19921;-88
2022/11/17 06:01:01;;;;;;;;;;;12.80;64.90;;;;;;5060688;28;20287;-87
2022/11/17 06:03:29;;;;;;;;;;;12.80;65.00;;;;;;5069926;28;19955;-89
2022/11/17 06:05:55;;;;;;;;;;;12.90;64.80;;;;;;5070005;28;19916;-86
2022/11/17 06:08:20;;;;;;;;;;;12.90;64.70;;;;;;5069384;28;20310;-88
2022/11/17 06:10:46;;;;;;;;;;;12.90;64.70;;;;;;5061891;28;19925;-88
2022/11/17 06:13:11;;;;;;;;;;;12.80;64.80;;;;;;5062672;28;19912;-87
2022/11/17 06:15:37;;;;;;;;;;;12.90;64.60;;;;;;5060588;28;19950;-86
2022/11/17 06:18:05;;;;;;;;;;;12.90;64.50;;;;;;5063648;28;19920;-86
2022/11/17 06:20:32;;;;;;;;;;;12.90;64.60;;;;;;5062662;28;19974;-87
2022/11/17 06:23:00;;;;;;;;;;;12.80;64.70;;;;;;5071743;28;19912;-88
2022/11/17 06:25:26;;;;;;;;;;;12.90;64.70;;;;;;5070303;28;19923;-87
2022/11/17 06:27:52;;;;;;;;;;;12.90;64.70;;;;;;5071537;28;19913;-86
2022/11/17 06:30:17;;;;;;;;;;;12.90;64.70;;;;;;5071682;28;19912;-88
2022/11/17 06:32:44;;;;;;;;;;;12.80;64.80;;;;;;5069810;28;19920;-88
2022/11/17 06:35:12;;;;;;;;;;;12.80;64.90;;;;;;5070116;28;20236;-86
2022/11/17 06:37:37;;;;;;;;;;;12.90;64.90;;;;;;5069693;28;19991;-86
2022/11/17 06:40:03;;;;;;;;;;;12.80;64.90;;;;;;5069872;28;20015;-88
2022/11/17 06:45:13;;;;;;;;;;;13.00;64.70;;;;;;5061706;28;19966;-88
2022/11/17 06:47:38;;;;;;;;;;;13.00;64.60;;;;;;5049138;28;19932;-88
2022/11/17 06:50:04;;;;;;;;;;;13.10;64.40;;;;;;5049509;28;19912;-89
2022/11/17 06:52:30;;;;;;;;;;;13.10;64.40;;;;;;5051264;28;19913;-89
2022/11/17 06:54:55;;;;;;;;;;;13.00;64.50;;;;;;5049609;28;20382;-89
2022/11/17 06:57:21;;;;;;;;;;;13.00;64.70;;;;;;5050837;28;19999;-87
2022/11/17 06:59:46;;;;;;;;;;;13.10;64.60;;;;;;5049497;28;19921;-87
2022/11/17 07:02:12;;;;;;;;;;;13.10;64.60;;;;;;5049105;28;20375;-87
2022/11/17 07:04:38;;;;;;;;;;;13.10;64.50;;;;;;5065951;28;19913;-88
2022/11/17 07:07:03;;;;;;;;;;;13.20;64.50;;;;;;5049530;28;19917;-90
2022/11/17 07:09:29;;;;;;;;;;;13.20;64.40;;;;;;5066530;28;19955;-87
2022/11/17 07:11:56;;;;;;;;;;;13.30;64.30;;;;;;5050481;28;19917;-87
2022/11/17 07:14:21;;;;;;;;;;;13.30;64.30;;;;;;5049126;28;20007;-87
2022/11/17 07:16:47;;;;;;;;;;;13.30;64.40;;;;;;5050954;28;19998;-87
2022/11/17 07:19:12;;;;;;;;;;;13.30;64.40;;;;;;5049943;28;19921;-87
2022/11/17 07:21:38;;;;;;;;;;;13.30;64.30;;;;;;5066402;28;19913;-88
2022/11/17 07:24:04;;;;;;;;;;;13.30;64.30;;;;;;5052887;28;19921;-88
2022/11/17 07:26:29;;;;;;;;;;;13.40;64.10;;;;;;5049472;28;19956;-88
2022/11/17 07:28:55;;;;;;;;;;;13.50;64.00;;;;;;5055263;28;19971;-88
2022/11/17 07:31:21;;;;;;;;;;;13.50;64.00;;;;;;5049254;28;19962;-89
2022/11/17 07:33:47;;;;;;;;;;;13.40;64.00;;;;;;5056477;28;20010;-89
2022/11/17 07:36:15;;;;;;;;;;;13.50;64.20;;;;;;5070785;28;19908;-89
2022/11/17 07:38:41;;;;;;;;;;;13.50;64.10;;;;;;5069618;28;19920;-87
2022/11/17 07:41:08;;;;;;;;;;;13.50;64.00;;;;;;5070118;28;19912;-87
2022/11/17 07:43:34;;;;;;;;;;;13.50;63.80;;;;;;5070768;28;19970;-88
2022/11/17 07:46:09;;;;;;;;;;;13.50;63.70;;;;;;5055235;28;20310;-88
2022/11/17 07:48:34;;;;;;;;;;;13.50;63.90;;;;;;5049396;28;19967;-88
2022/11/17 07:51:00;;;;;;;;;;;13.50;64.00;;;;;;5050801;28;20375;-88
2022/11/17 07:53:26;;;;;;;;;;;13.50;64.00;;;;;;5050964;28;20682;-87
2022/11/17 07:55:52;;;;;;;;;;;13.50;64.10;;;;;;5050804;28;19959;-87
2022/11/17 07:58:17;;;;;;;;;;;13.50;64.10;;;;;;5050918;28;20333;-88
2022/11/17 08:00:43;;;;;;;;;;;13.60;64.10;;;;;;5053979;28;19920;-87
2022/11/17 08:03:09;;;;;;;;;;;13.60;64.30;;;;;;5054369;28;20352;-87
2022/11/17 08:05:35;;;;;;;;;;;13.70;64.30;;;;;;5052951;28;19920;-86
2022/11/17 08:08:01;;;;;;;;;;;13.70;64.30;;;;;;5071396;28;19948;-89
2022/11/17 08:10:30;;;;;;;;;;;13.80;64.30;;;;;;5055236;28;19916;-87
2022/11/17 08:12:57;;;;;;;;;;;13.80;64.20;;;;;;5052661;28;19920;-89
2022/11/17 08:15:22;;;;;;;;;;;13.80;64.20;;;;;;5052756;28;19917;-88
2022/11/17 08:17:52;;;;;;;;;;;13.80;64.10;;;;;;5069350;28;19913;-88
2022/11/17 08:20:18;;;;;;;;;;;13.90;64.00;;;;;;5052096;28;19929;-88
2022/11/17 08:22:45;;;;;;;;;;;13.90;64.00;;;;;;5052920;28;19971;-88
2022/11/17 08:25:11;;;;;;;;;;;14.00;64.00;;;;;;5069600;28;19948;-89
2022/11/17 08:27:36;;;;;;;;;;;14.00;63.80;;;;;;5052107;28;19955;-88
2022/11/17 08:30:02;;;;;;;;;;;14.00;63.70;;;;;;5069315;28;19912;-87
2022/11/17 08:32:28;;;;;;;;;;;14.00;63.50;;;;;;5053960;28;20249;-88
2022/11/17 08:34:53;;;;;;;;;;;14.10;63.50;;;;;;5085358;28;19923;-88
2022/11/17 08:37:20;;;;;;;;;;;14.10;63.30;;;;;;5072303;28;19912;-88
2022/11/17 08:39:45;;;;;;;;;;;14.00;63.50;;;;;;5071973;28;19971;-88
2022/11/17 08:42:11;;;;;;;;;;;14.00;63.50;;;;;;5072056;28;19912;-90
2022/11/17 08:44:36;;;;;;;;;;;14.00;63.40;;;;;;5063608;28;19999;-87
2022/11/17 08:47:02;;;;;;;;;;;14.00;63.20;;;;;;5068206;28;20373;-87
2022/11/17 08:49:27;;;;;;;;;;;13.90;63.20;;;;;;5069959;28;19920;-86
2022/11/17 08:51:53;;;;;;;;;;;13.70;63.10;;;;;;5069876;28;19927;-87
2022/11/17 08:54:18;;;;;;;;;;;13.70;63.10;;;;;;5067408;28;20387;-87
2022/11/17 08:56:45;;;;;;;;;;;13.60;63.20;;;;;;5070038;28;20457;-88
2022/11/17 08:59:11;;;;;;;;;;;13.60;63.50;;;;;;5069818;28;19931;-85
2022/11/17 09:01:37;;;;;;;;;;;13.50;63.70;;;;;;5069328;28;19994;-86
2022/11/17 09:04:04;;;;;;;;;;;13.40;63.90;;;;;;5068612;28;20294;-88
2022/11/17 09:06:29;;;;;;;;;;;13.40;64.10;;;;;;5068558;28;19926;-88
2022/11/17 09:08:55;;;;;;;;;;;13.30;64.30;;;;;;5068500;28;20409;-87
2022/11/17 09:11:20;;;;;;;;;;;13.30;64.50;;;;;;5065557;28;20358;-86
2022/11/17 09:13:46;;;;;;;;;;;13.40;64.50;;;;;;5068655;28;19917;-86
2022/11/17 09:16:11;;;;;;;;;;;13.40;64.50;;;;;;5069177;28;19919;-87
2022/11/17 09:18:40;;;;;;;;;;;13.40;64.50;;;;;;5067126;28;20039;-88
2022/11/17 09:21:07;;;;;;;;;;;13.40;64.50;;;;;;5069515;28;19917;-88
2022/11/17 09:23:33;;;;;;;;;;;13.40;64.60;;;;;;5068775;28;19920;-87
2022/11/17 09:26:03;;;;;;;;;;;13.40;64.70;;;;;;5068830;28;19981;-86
2022/11/17 09:28:29;;;;;;;;;;;13.50;64.60;;;;;;5067631;28;19970;-89
2022/11/17 09:30:54;;;;;;;;;;;13.50;64.80;;;;;;5069550;28;20314;-88
2022/11/17 09:33:20;;;;;;;;;;;13.50;64.80;;;;;;5067658;28;19994;-88
2022/11/17 09:35:45;;;;;;;;;;;13.60;64.90;;;;;;5068394;28;19952;-89
2022/11/17 09:38:11;;;;;;;;;;;13.60;64.80;;;;;;5062505;28;19917;-86
2022/11/17 09:40:39;;;;;;;;;;;13.50;64.90;;;;;;5048329;28;19921;-88
2022/11/17 09:43:14;;;;;;;;;;;13.60;64.80;;;;;;5050377;28;19919;-90
2022/11/17 09:45:40;;;;;;;;;;;13.70;65.00;;;;;;5062153;28;20473;-86
2022/11/17 09:48:08;;;;;;;;;;;13.60;64.90;;;;;;5068974;28;19917;-86
2022/11/17 09:50:38;;;;;;;;;;;13.60;64.90;;;;;;5069237;28;19920;-87
2022/11/17 09:53:16;;;;;;;;;;;13.70;64.80;;;;;;5067221;28;19920;-88
2022/11/17 09:55:44;;;;;;;;;;;13.70;64.70;;;;;;5069328;28;19924;-88
2022/11/17 09:58:12;;;;;;;;;;;13.70;64.70;;;;;;5069822;28;19916;-87
2022/11/17 10:00:40;;;;;;;;;;;13.70;64.80;;;;;;5068798;28;20019;-88
2022/11/17 10:03:12;;;;;;;;;;;13.70;64.70;;;;;;5068471;28;20263;-88
2022/11/17 10:05:38;;;;;;;;;;;13.70;64.80;;;;;;5068267;28;19955;-89
2022/11/17 10:08:07;;;;;;;;;;;13.80;64.80;;;;;;5068216;28;19916;-88
2022/11/17 10:10:41;;;;;;;;;;;13.70;65.00;;;;;;5067246;28;19916;-87
2022/11/17 10:13:14;;;;;;;;;;;13.80;64.90;;;;;;5067598;28;20321;-87
2022/11/17 10:15:47;;;;;;;;;;;13.80;64.90;;;;;;5072057;28;19927;-89
2022/11/17 10:18:14;;;;;;;;;;;13.90;64.70;;;;;;5057013;28;19921;-88
2022/11/17 10:20:43;;;;;;;;;;;13.90;64.50;;;;;;5061380;28;20344;-88
2022/11/17 10:23:16;;;;;;;;;;;13.90;64.70;;;;;;5056049;28;19917;-89
2022/11/17 10:25:44;;;;;;;;;;;13.90;64.60;;;;;;5063887;28;19967;-87
2022/11/17 10:28:29;;;;;;;;;;;13.90;64.50;;;;;;5051007;28;20031;-89
2022/11/17 10:30:56;;;;;;;;;;;13.90;64.40;;;;;;5060650;28;19920;-88
2022/11/17 10:33:41;;;;;;;;;;;13.80;64.50;;;;;;5053094;28;19920;-88
2022/11/17 10:36:21;;;;;;;;;;;13.70;64.50;;;;;;5067342;28;19916;-87
2022/11/17 10:38:51;;;;;;;;;;;13.70;64.50;;;;;;5057523;28;19928;-86
2022/11/17 10:41:24;;;;;;;;;;;13.60;64.60;;;;;;5050245;28;19919;-87
2022/11/17 10:44:01;;;;;;;;;;;13.60;64.70;;;;;;5048031;28;19917;-86
2022/11/17 10:46:27;;;;;;;;;;;13.70;64.80;;;;;;5051278;28;19912;-86
2022/11/17 10:49:03;;;;;;;;;;;13.70;64.80;;;;;;5068282;28;19917;-86
2022/11/17 10:51:32;;;;;;;;;;;13.70;65.00;;;;;;5068395;28;20798;-87
2022/11/17 10:54:03;;;;;;;;;;;13.80;65.00;;;;;;5066792;28;20266;-87
2022/11/17 10:56:29;;;;;;;;;;;13.80;65.00;;;;;;5067990;28;20383;-87
2022/11/17 10:59:12;;;;;;;;;;;13.80;65.00;;;;;;5067929;28;19928;-87
2022/11/17 11:01:39;;;;;;;;;;;13.80;65.00;;;;;;5067625;28;19916;-88
2022/11/17 11:04:06;;;;;;;;;;;13.80;65.00;;;;;;5066938;28;19917;-86
2022/11/17 11:06:32;;;;;;;;;;;13.80;65.00;;;;;;5068029;28;20002;-87
2022/11/17 11:09:13;;;;;;;;;;;13.80;65.00;;;;;;5066652;28;20055;-87
2022/11/17 11:11:47;;;;;;;;;;;13.90;65.00;;;;;;5068213;28;20002;-88
2022/11/17 11:14:25;;;;;;;;;;;14.00;65.10;;;;;;5066866;28;19928;-87
2022/11/17 11:16:50;;;;;;;;;;;14.00;65.10;;;;;;5068708;28;19913;-88
2022/11/17 11:19:17;;;;;;;;;;;14.10;65.00;;;;;;5068467;28;19989;-88
2022/11/17 11:21:49;;;;;;;;;;;14.20;64.90;;;;;;5066611;28;20303;-88
2022/11/17 11:24:20;;;;;;;;;;;14.20;64.90;;;;;;5067548;28;19917;-87
2022/11/17 11:26:58;;;;;;;;;;;14.20;64.90;;;;;;5067524;28;19928;-87
2022/11/17 11:29:23;;;;;;;;;;;14.20;64.90;;;;;;5068108;28;19928;-87
2022/11/17 11:32:15;;;;;;;;;;;14.30;65.10;;;;;;5067981;28;19989;-89
2022/11/17 11:34:55;;;;;;;;;;;14.30;65.20;;;;;;5069237;28;19960;-87
2022/11/17 11:37:24;;;;;;;;;;;14.40;64.90;;;;;;5067272;28;19921;-86
2022/11/17 11:40:08;;;;;;;;;;;14.40;64.80;;;;;;5065690;28;19970;-87
2022/11/17 11:42:43;;;;;;;;;;;14.30;64.70;;;;;;5064922;28;20370;-87
2022/11/17 11:45:17;;;;;;;;;;;14.30;64.90;;;;;;5059995;28;20361;-87
2022/11/17 11:48:09;;;;;;;;;;;14.40;64.90;;;;;;5056065;28;19917;-86
2022/11/17 11:50:52;;;;;;;;;;;14.40;65.10;;;;;;5049979;28;19917;-87
2022/11/17 11:53:24;;;;;;;;;;;14.50;65.00;;;;;;5051512;28;19920;-86
2022/11/17 11:56:03;;;;;;;;;;;14.50;65.00;;;;;;5049753;28;19921;-89
2022/11/17 11:58:28;;;;;;;;;;;14.50;64.90;;;;;;5051385;28;20544;-86
2022/11/17 12:01:04;;;;;;;;;;;14.60;64.90;;;;;;5069864;28;19920;-87
2022/11/17 12:03:47;;;;;;;;;;;14.60;64.70;;;;;;5071824;28;19917;-88
2022/11/17 12:06:40;;;;;;;;;;;14.60;64.90;;;;;;5071316;28;19920;-88
2022/11/17 12:09:21;;;;;;;;;;;14.60;64.90;;;;;;5069453;28;19928;-86
2022/11/17 12:11:59;;;;;;;;;;;14.60;65.00;;;;;;5070162;28;19912;-87
2022/11/17 12:14:25;;;;;;;;;;;14.60;65.10;;;;;;5069966;28;20562;-87
2022/11/17 12:16:59;;;;;;;;;;;14.70;65.30;;;;;;5068957;28;20375;-87
2022/11/17 12:19:43;;;;;;;;;;;14.70;65.30;;;;;;5069887;28;19971;-88
2022/11/17 12:22:12;;;;;;;;;;;14.80;65.20;;;;;;5070743;28;20378;-86
2022/11/17 12:24:40;;;;;;;;;;;14.80;65.30;;;;;;5070655;28;19966;-87
2022/11/17 12:27:24;;;;;;;;;;;14.90;65.30;;;;;;5068926;28;19916;-89
2022/11/17 12:29:50;;;;;;;;;;;15.10;65.40;;;;;;5069415;28;19943;-88
2022/11/17 12:32:34;;;;;;;;;;;15.20;65.50;;;;;;5072344;28;20391;-87
2022/11/17 12:35:19;;;;;;;;;;;15.30;65.60;;;;;;5068983;28;19917;-88
2022/11/17 12:37:44;;;;;;;;;;;15.40;65.60;;;;;;5066337;28;19965;-88
2022/11/17 12:40:30;;;;;;;;;;;15.50;65.60;;;;;;5048928;28;19979;-88
2022/11/17 12:43:13;;;;;;;;;;;15.60;65.60;;;;;;5059433;28;20359;-87
2022/11/17 12:45:51;;;;;;;;;;;15.70;65.70;;;;;;5062669;28;19916;-89
2022/11/17 12:48:18;;;;;;;;;;;15.80;65.70;;;;;;5068894;28;19971;-88
2022/11/17 12:50:49;;;;;;;;;;;15.90;65.50;;;;;;5070214;28;19920;-89
2022/11/17 12:53:21;;;;;;;;;;;16.00;65.10;;;;;;5070632;28;19917;-87
2022/11/17 12:55:58;;;;;;;;;;;16.00;64.80;;;;;;5069669;28;19912;-89
2022/11/17 12:58:23;;;;;;;;;;;16.00;64.70;;;;;;5069686;28;20357;-88
2022/11/17 13:00:58;;;;;;;;;;;16.10;64.50;;;;;;5067943;28;20011;-88
2022/11/17 13:03:37;;;;;;;;;;;16.10;64.40;;;;;;5068017;28;20435;-88
2022/11/17 13:06:10;;;;;;;;;;;16.10;64.30;;;;;;5068707;28;19924;-87
2022/11/17 13:08:36;;;;;;;;;;;16.20;64.40;;;;;;5070394;28;20545;-88
2022/11/17 13:11:06;;;;;;;;;;;16.20;64.20;;;;;;5071413;28;19989;-87
2022/11/17 13:13:32;;;;;;;;;;;16.20;64.00;;;;;;5069014;28;19916;-87
2022/11/17 13:15:59;;;;;;;;;;;16.10;63.60;;;;;;5068209;28;19916;-88
2022/11/17 13:18:28;;;;;;;;;;;16.00;63.80;;;;;;5068132;28;19912;-88
2022/11/17 13:20:53;;;;;;;;;;;15.90;64.00;;;;;;5067808;28;19995;-90
2022/11/17 13:23:20;;;;;;;;;;;15.80;64.10;;;;;;5069535;28;19916;-88
2022/11/17 13:25:46;;;;;;;;;;;15.80;64.30;;;;;;5069414;28;19916;-88
2022/11/17 13:28:25;;;;;;;;;;;15.80;64.40;;;;;;5067825;28;19924;-90
2022/11/17 13:30:50;;;;;;;;;;;15.80;64.50;;;;;;5068043;28;19916;-86
2022/11/17 13:33:20;;;;;;;;;;;15.90;64.70;;;;;;5072375;28;20039;-87
2022/11/17 13:35:45;;;;;;;;;;;16.00;64.60;;;;;;5067569;28;19916;-88
2022/11/17 13:38:14;;;;;;;;;;;16.00;64.60;;;;;;5061464;28;19917;-89
2022/11/17 13:40:40;;;;;;;;;;;16.00;64.80;;;;;;5048126;28;19921;-87
2022/11/17 13:43:09;;;;;;;;;;;16.10;64.70;;;;;;5047816;28;19917;-87
2022/11/17 13:45:35;;;;;;;;;;;16.10;64.50;;;;;;5047449;28;19921;-87
2022/11/17 13:48:00;;;;;;;;;;;16.10;64.60;;;;;;5064040;28;20015;-88
2022/11/17 13:50:26;;;;;;;;;;;16.20;64.60;;;;;;5064223;28;19917;-87
2022/11/17 13:53:01;;;;;;;;;;;16.20;64.20;;;;;;5049294;28;19992;-87
2022/11/17 13:55:27;;;;;;;;;;;16.20;64.30;;;;;;5053075;28;19917;-89
2022/11/17 13:57:57;;;;;;;;;;;16.10;64.10;;;;;;5047387;28;19917;-91
2022/11/17 14:00:23;;;;;;;;;;;16.20;64.30;;;;;;5049515;28;19925;-87
2022/11/17 14:02:58;;;;;;;;;;;16.10;64.10;;;;;;5048946;28;19917;-87
2022/11/17 14:05:29;;;;;;;;;;;16.20;64.20;;;;;;5048267;28;20188;-88
2022/11/17 14:07:58;;;;;;;;;;;16.20;64.10;;;;;;5064406;28;19916;-87
2022/11/17 14:10:24;;;;;;;;;;;16.10;64.10;;;;;;5063593;28;19928;-87
2022/11/17 14:13:05;;;;;;;;;;;16.20;64.10;;;;;;5047367;28;19917;-89
2022/11/17 14:15:33;;;;;;;;;;;16.20;64.30;;;;;;5048680;28;19913;-89
2022/11/17 14:17:59;;;;;;;;;;;16.20;64.20;;;;;;5048668;28;19923;-87
2022/11/17 14:20:33;;;;;;;;;;;16.20;64.30;;;;;;5046558;28;19928;-87
2022/11/17 14:23:12;;;;;;;;;;;16.20;64.00;;;;;;5063620;28;20283;-88
2022/11/17 14:25:41;;;;;;;;;;;16.20;64.10;;;;;;5046787;28;19917;-89
2022/11/17 14:28:14;;;;;;;;;;;16.20;64.00;;;;;;5063217;28;19917;-89
2022/11/17 14:30:39;;;;;;;;;;;16.20;64.00;;;;;;5063422;28;19917;-88
2022/11/17 14:33:05;;;;;;;;;;;16.10;64.00;;;;;;5064781;28;20272;-86
2022/11/17 14:35:31;;;;;;;;;;;16.10;63.80;;;;;;5066309;28;20375;-88
2022/11/17 14:37:58;;;;;;;;;;;16.10;64.00;;;;;;5064133;28;20308;-89
2022/11/17 14:40:23;;;;;;;;;;;16.10;63.80;;;;;;5046601;28;19928;-87
2022/11/17 14:42:49;;;;;;;;;;;16.10;63.80;;;;;;5046357;28;19921;-88
2022/11/17 14:45:18;;;;;;;;;;;16.10;63.90;;;;;;5046087;28;19917;-88
2022/11/17 14:47:43;;;;;;;;;;;16.10;64.00;;;;;;5048019;28;19916;-87